createdAt,value
2022-12-09T00:09:24.187Z,49.68
2022-12-09T00:24:24.440Z,51.50
2022-12-09T00:39:24.404Z,47.61
2022-12-09T00:54:24.657Z,40.85
2022-12-09T01:09:24.847Z,38.51
2022-12-09T01:24:24.899Z,34.38
2022-12-09T01:39:25.272Z,33.83
2022-12-09T01:54:25.340Z,34.42
2022-12-09T02:09:25.743Z,33.34
2022-12-09T02:24:25.803Z,31.13
2022-12-09T02:39:26.114Z,30.83
2022-12-09T02:54:26.237Z,31.03
2022-12-09T03:09:26.608Z,31.01
2022-12-09T03:24:26.644Z,31.54
2022-12-09T03:39:27.383Z,30.80
2022-12-09T03:54:27.958Z,32.50
2022-12-09T04:09:28.174Z,34.30
2022-12-09T04:24:28.397Z,40.13
2022-12-09T04:39:28.583Z,41.53
2022-12-09T04:54:29.073Z,38.37
2022-12-09T05:09:29.528Z,40.81
2022-12-09T05:24:30.700Z,42.94
2022-12-09T05:39:30.481Z,49.93
2022-12-09T05:54:30.976Z,56.32
2022-12-09T06:09:32.287Z,55.18
2022-12-09T06:24:33.103Z,46.62
2022-12-09T06:39:33.220Z,37.70
2022-12-09T06:54:33.512Z,35.66
2022-12-09T07:09:34.181Z,34.77
2022-12-09T07:24:34.746Z,33.39
2022-12-09T07:39:34.906Z,33.34
2022-12-09T07:54:35.112Z,32.90
2022-12-09T08:09:35.824Z,37.18
2022-12-09T08:24:36.847Z,38.32
2022-12-09T08:39:37.612Z,34.33
2022-12-09T08:54:38.160Z,32.11
2022-12-09T09:09:39.523Z,32.83
2022-12-09T09:24:40.384Z,29.88
2022-12-09T09:39:40.603Z,28.73
2022-12-09T09:54:41.676Z,25.48
2022-12-09T10:09:42.383Z,25.05
2022-12-09T10:24:43.159Z,21.47
2022-12-09T10:39:43.339Z,20.01
2022-12-09T10:54:43.532Z,21.47
2022-12-09T11:09:44.774Z,20.83
2022-12-09T11:24:45.829Z,19.57
2022-12-09T11:39:46.547Z,17.69
2022-12-09T11:54:47.059Z,17.47
2022-12-09T12:09:47.695Z,15.91
2022-12-09T12:24:48.348Z,15.90
2022-12-09T12:39:48.926Z,16.53
2022-12-09T12:54:49.535Z,16.21
2022-12-09T13:09:50.181Z,16.74
2022-12-09T13:24:54.117Z,17.89
2022-12-09T13:39:56.172Z,19.24
2022-12-09T13:54:56.276Z,21.13
2022-12-09T14:09:56.597Z,21.86
2022-12-09T14:24:57.137Z,25.22
2022-12-09T14:39:57.473Z,26.68
2022-12-09T14:54:57.429Z,27.64
2022-12-09T15:09:57.572Z,25.86
2022-12-09T15:24:57.809Z,28.07
2022-12-09T15:39:58.040Z,28.59
2022-12-09T15:54:58.382Z,26.51
2022-12-09T16:09:58.251Z,28.19
2022-12-09T16:25:14.330Z,28.30
2022-12-09T16:40:03.590Z,28.63
2022-12-09T16:55:03.808Z,31.14
2022-12-09T17:10:04.471Z,31.77
2022-12-09T17:25:05.537Z,32.62
2022-12-09T17:40:06.328Z,31.57
2022-12-09T17:55:06.839Z,30.43
2022-12-09T18:10:07.996Z,30.65
2022-12-09T18:25:08.808Z,30.66
2022-12-09T18:40:09.191Z,30.75
2022-12-09T18:55:09.196Z,30.01
2022-12-09T19:10:09.693Z,31.80
2022-12-09T19:25:09.613Z,32.95
2022-12-09T19:40:10.294Z,31.80
2022-12-09T19:55:11.058Z,33.25
2022-12-09T20:10:11.333Z,40.93
2022-12-09T20:25:11.500Z,45.78
2022-12-09T20:40:11.821Z,47.04
2022-12-09T20:55:11.988Z,48.61
2022-12-09T21:10:12.753Z,46.33
2022-12-09T21:25:12.987Z,44.64
2022-12-09T21:40:13.194Z,41.70
2022-12-09T21:55:13.912Z,40.23
2022-12-09T22:10:14.619Z,40.65
2022-12-09T22:25:14.925Z,40.02
2022-12-09T22:40:15.249Z,43.61
2022-12-09T22:55:15.530Z,45.82
2022-12-09T23:10:15.856Z,45.40
2022-12-09T23:25:17.851Z,44.56
2022-12-09T23:40:18.526Z,40.86
2022-12-09T23:55:18.711Z,40.36
